sensor_id;sensor_type;location;lat;lon;timestamp;temperature;humidity
72380;SHT30;60354;47.798;12.472;2023-07-02T00:00:27;16.96;90.34
72380;SHT30;60354;47.798;12.472;2023-07-02T00:02:52;17.00;90.34
72380;SHT30;60354;47.798;12.472;2023-07-02T00:05:17;17.09;90.15
72380;SHT30;60354;47.798;12.472;2023-07-02T00:07:43;17.17;90.03
72380;SHT30;60354;47.798;12.472;2023-07-02T00:10:09;17.23;90.68
72380;SHT30;60354;47.798;12.472;2023-07-02T00:12:36;17.16;90.29
72380;SHT30;60354;47.798;12.472;2023-07-02T00:15:02;17.09;90.35
72380;SHT30;60354;47.798;12.472;2023-07-02T00:17:27;17.16;90.60
72380;SHT30;60354;47.798;12.472;2023-07-02T00:19:53;17.17;90.61
72380;SHT30;60354;47.798;12.472;2023-07-02T00:22:19;17.16;91.14
72380;SHT30;60354;47.798;12.472;2023-07-02T00:24:45;17.15;91.24
72380;SHT30;60354;47.798;12.472;2023-07-02T00:27:10;17.22;91.17
72380;SHT30;60354;47.798;12.472;2023-07-02T00:29:35;17.16;91.04
72380;SHT30;60354;47.798;12.472;2023-07-02T00:32:01;17.22;90.80
72380;SHT30;60354;47.798;12.472;2023-07-02T00:34:28;17.20;90.91
72380;SHT30;60354;47.798;12.472;2023-07-02T00:36:53;17.12;91.67
72380;SHT30;60354;47.798;12.472;2023-07-02T00:39:19;17.13;91.55
72380;SHT30;60354;47.798;12.472;2023-07-02T00:41:44;16.99;91.03
72380;SHT30;60354;47.798;12.472;2023-07-02T00:44:13;17.00;90.94
72380;SHT30;60354;47.798;12.472;2023-07-02T00:46:39;17.06;90.76
72380;SHT30;60354;47.798;12.472;2023-07-02T00:49:05;17.07;90.62
72380;SHT30;60354;47.798;12.472;2023-07-02T00:51:31;16.90;90.31
72380;SHT30;60354;47.798;12.472;2023-07-02T00:53:57;16.90;90.43
72380;SHT30;60354;47.798;12.472;2023-07-02T00:56:24;16.97;90.38
72380;SHT30;60354;47.798;12.472;2023-07-02T00:58:52;16.85;90.74
72380;SHT30;60354;47.798;12.472;2023-07-02T01:01:24;16.89;90.69
72380;SHT30;60354;47.798;12.472;2023-07-02T01:04:01;16.89;90.50
72380;SHT30;60354;47.798;12.472;2023-07-02T01:06:31;16.86;89.84
72380;SHT30;60354;47.798;12.472;2023-07-02T01:08:58;16.92;89.84
72380;SHT30;60354;47.798;12.472;2023-07-02T01:11:29;16.86;89.50
72380;SHT30;60354;47.798;12.472;2023-07-02T01:14:01;16.78;89.97
72380;SHT30;60354;47.798;12.472;2023-07-02T01:16:29;16.80;90.52
72380;SHT30;60354;47.798;12.472;2023-07-02T01:18:56;16.80;90.30
72380;SHT30;60354;47.798;12.472;2023-07-02T01:21:23;16.79;90.42
72380;SHT30;60354;47.798;12.472;2023-07-02T01:23:49;16.76;90.41
72380;SHT30;60354;47.798;12.472;2023-07-02T01:26:15;16.80;90.12
72380;SHT30;60354;47.798;12.472;2023-07-02T01:28:41;16.82;90.32
72380;SHT30;60354;47.798;12.472;2023-07-02T01:31:07;16.80;90.20
72380;SHT30;60354;47.798;12.472;2023-07-02T01:33:32;16.86;90.42
72380;SHT30;60354;47.798;12.472;2023-07-02T01:35:58;16.86;89.96
72380;SHT30;60354;47.798;12.472;2023-07-02T01:38:23;16.87;89.72
72380;SHT30;60354;47.798;12.472;2023-07-02T01:40:49;16.92;89.60
72380;SHT30;60354;47.798;12.472;2023-07-02T01:43:14;16.87;90.07
72380;SHT30;60354;47.798;12.472;2023-07-02T01:45:41;16.89;90.43
72380;SHT30;60354;47.798;12.472;2023-07-02T01:48:07;16.96;90.18
72380;SHT30;60354;47.798;12.472;2023-07-02T01:50:32;17.03;90.53
72380;SHT30;60354;47.798;12.472;2023-07-02T01:52:58;17.00;90.63
72380;SHT30;60354;47.798;12.472;2023-07-02T01:55:25;16.97;90.25
72380;SHT30;60354;47.798;12.472;2023-07-02T01:57:51;17.02;90.15
72380;SHT30;60354;47.798;12.472;2023-07-02T02:00:16;16.99;91.10
72380;SHT30;60354;47.798;12.472;2023-07-02T02:02:43;17.02;90.05
72380;SHT30;60354;47.798;12.472;2023-07-02T02:05:08;17.05;90.74
72380;SHT30;60354;47.798;12.472;2023-07-02T02:07:36;16.96;91.35
72380;SHT30;60354;47.798;12.472;2023-07-02T02:10:03;16.80;92.16
72380;SHT30;60354;47.798;12.472;2023-07-02T02:12:29;16.82;92.67
72380;SHT30;60354;47.798;12.472;2023-07-02T02:14:56;16.83;92.66
72380;SHT30;60354;47.798;12.472;2023-07-02T02:17:22;16.85;91.91
72380;SHT30;60354;47.798;12.472;2023-07-02T02:19:49;16.89;91.49
72380;SHT30;60354;47.798;12.472;2023-07-02T02:22:15;16.82;92.57
72380;SHT30;60354;47.798;12.472;2023-07-02T02:24:41;16.85;92.61
72380;SHT30;60354;47.798;12.472;2023-07-02T02:27:07;16.65;93.10
72380;SHT30;60354;47.798;12.472;2023-07-02T02:29:32;16.68;92.16
72380;SHT30;60354;47.798;12.472;2023-07-02T02:31:59;16.65;93.41
72380;SHT30;60354;47.798;12.472;2023-07-02T02:34:25;16.49;92.96
72380;SHT30;60354;47.798;12.472;2023-07-02T02:36:51;16.54;92.65
72380;SHT30;60354;47.798;12.472;2023-07-02T02:39:16;16.51;92.54
72380;SHT30;60354;47.798;12.472;2023-07-02T02:41:43;16.54;92.95
72380;SHT30;60354;47.798;12.472;2023-07-02T02:44:12;16.54;92.88
72380;SHT30;60354;47.798;12.472;2023-07-02T02:46:38;16.56;92.27
72380;SHT30;60354;47.798;12.472;2023-07-02T02:49:03;16.61;93.01
72380;SHT30;60354;47.798;12.472;2023-07-02T02:51:32;16.65;93.03
72380;SHT30;60354;47.798;12.472;2023-07-02T02:53:58;16.75;91.87
72380;SHT30;60354;47.798;12.472;2023-07-02T02:56:23;16.85;91.84
72380;SHT30;60354;47.798;12.472;2023-07-02T02:58:49;16.85;90.82
72380;SHT30;60354;47.798;12.472;2023-07-02T03:01:14;16.78;91.13
72380;SHT30;60354;47.798;12.472;2023-07-02T03:03:40;16.80;92.14
72380;SHT30;60354;47.798;12.472;2023-07-02T03:06:10;16.82;91.37
72380;SHT30;60354;47.798;12.472;2023-07-02T03:08:36;16.85;92.12
72380;SHT30;60354;47.798;12.472;2023-07-02T03:11:02;16.82;92.34
72380;SHT30;60354;47.798;12.472;2023-07-02T03:13:28;16.75;92.28
72380;SHT30;60354;47.798;12.472;2023-07-02T03:15:53;16.78;92.14
72380;SHT30;60354;47.798;12.472;2023-07-02T03:18:19;16.80;92.16
72380;SHT30;60354;47.798;12.472;2023-07-02T03:20:44;16.76;91.80
72380;SHT30;60354;47.798;12.472;2023-07-02T03:23:10;16.78;91.87
72380;SHT30;60354;47.798;12.472;2023-07-02T03:25:35;16.62;92.28
72380;SHT30;60354;47.798;12.472;2023-07-02T03:28:00;16.54;92.04
72380;SHT30;60354;47.798;12.472;2023-07-02T03:30:26;16.58;92.14
72380;SHT30;60354;47.798;12.472;2023-07-02T03:32:51;16.65;92.25
72380;SHT30;60354;47.798;12.472;2023-07-02T03:35:17;16.71;92.27
72380;SHT30;60354;47.798;12.472;2023-07-02T03:37:42;16.76;92.38
72380;SHT30;60354;47.798;12.472;2023-07-02T03:40:09;16.73;92.01
72380;SHT30;60354;47.798;12.472;2023-07-02T03:42:34;16.76;91.90
72380;SHT30;60354;47.798;12.472;2023-07-02T03:45:00;16.78;91.74
72380;SHT30;60354;47.798;12.472;2023-07-02T03:47:25;16.80;91.82
72380;SHT30;60354;47.798;12.472;2023-07-02T03:49:51;16.78;91.38
72380;SHT30;60354;47.798;12.472;2023-07-02T03:52:16;16.83;90.85
72380;SHT30;60354;47.798;12.472;2023-07-02T03:54:42;16.83;91.56
72380;SHT30;60354;47.798;12.472;2023-07-02T03:57:07;16.79;91.95
72380;SHT30;60354;47.798;12.472;2023-07-02T03:59:34;16.69;91.56
72380;SHT30;60354;47.798;12.472;2023-07-02T04:01:59;16.68;90.64
72380;SHT30;60354;47.798;12.472;2023-07-02T04:04:24;16.72;91.18
72380;SHT30;60354;47.798;12.472;2023-07-02T04:06:50;16.78;91.31
72380;SHT30;60354;47.798;12.472;2023-07-02T04:09:15;16.78;90.83
72380;SHT30;60354;47.798;12.472;2023-07-02T04:11:41;16.80;90.97
72380;SHT30;60354;47.798;12.472;2023-07-02T04:14:06;16.78;91.20
72380;SHT30;60354;47.798;12.472;2023-07-02T04:16:32;16.80;90.78
72380;SHT30;60354;47.798;12.472;2023-07-02T04:18:57;16.85;90.77
72380;SHT30;60354;47.798;12.472;2023-07-02T04:21:23;16.86;91.31
72380;SHT30;60354;47.798;12.472;2023-07-02T04:23:48;16.85;91.11
72380;SHT30;60354;47.798;12.472;2023-07-02T04:26:14;16.86;90.31
72380;SHT30;60354;47.798;12.472;2023-07-02T04:28:39;16.80;91.65
72380;SHT30;60354;47.798;12.472;2023-07-02T04:31:04;16.82;90.67
72380;SHT30;60354;47.798;12.472;2023-07-02T04:33:30;16.86;90.93
72380;SHT30;60354;47.798;12.472;2023-07-02T04:36:02;16.89;91.20
72380;SHT30;60354;47.798;12.472;2023-07-02T04:38:28;16.92;90.94
72380;SHT30;60354;47.798;12.472;2023-07-02T04:40:53;16.95;90.53
72380;SHT30;60354;47.798;12.472;2023-07-02T04:43:19;16.99;90.55
72380;SHT30;60354;47.798;12.472;2023-07-02T04:45:44;16.99;91.00
72380;SHT30;60354;47.798;12.472;2023-07-02T04:48:10;16.96;90.85
72380;SHT30;60354;47.798;12.472;2023-07-02T04:50:41;16.97;90.86
72380;SHT30;60354;47.798;12.472;2023-07-02T04:53:07;16.93;91.57
72380;SHT30;60354;47.798;12.472;2023-07-02T04:55:32;16.99;90.80
72380;SHT30;60354;47.798;12.472;2023-07-02T04:57:58;16.95;90.11
72380;SHT30;60354;47.798;12.472;2023-07-02T05:00:23;17.02;90.03
72380;SHT30;60354;47.798;12.472;2023-07-02T05:02:49;16.96;90.23
72380;SHT30;60354;47.798;12.472;2023-07-02T05:05:15;16.90;90.36
72380;SHT30;60354;47.798;12.472;2023-07-02T05:07:40;16.89;90.00
72380;SHT30;60354;47.798;12.472;2023-07-02T05:10:06;16.83;89.46
72380;SHT30;60354;47.798;12.472;2023-07-02T05:12:32;16.90;89.71
72380;SHT30;60354;47.798;12.472;2023-07-02T05:14:57;16.73;89.67
72380;SHT30;60354;47.798;12.472;2023-07-02T05:17:23;16.61;90.82
72380;SHT30;60354;47.798;12.472;2023-07-02T05:19:48;16.55;91.08
72380;SHT30;60354;47.798;12.472;2023-07-02T05:22:14;16.49;91.88
72380;SHT30;60354;47.798;12.472;2023-07-02T05:24:39;15.87;89.17
72380;SHT30;60354;47.798;12.472;2023-07-02T05:27:06;15.59;91.35
72380;SHT30;60354;47.798;12.472;2023-07-02T05:29:31;15.59;91.19
72380;SHT30;60354;47.798;12.472;2023-07-02T05:31:57;15.39;90.54
72380;SHT30;60354;47.798;12.472;2023-07-02T05:34:22;15.34;90.01
72380;SHT30;60354;47.798;12.472;2023-07-02T05:36:48;15.29;90.74
72380;SHT30;60354;47.798;12.472;2023-07-02T05:39:13;15.35;91.89
72380;SHT30;60354;47.798;12.472;2023-07-02T05:41:39;15.40;90.92
72380;SHT30;60354;47.798;12.472;2023-07-02T05:44:04;15.28;91.39
72380;SHT30;60354;47.798;12.472;2023-07-02T05:46:30;15.45;90.67
72380;SHT30;60354;47.798;12.472;2023-07-02T05:48:55;15.34;90.18
72380;SHT30;60354;47.798;12.472;2023-07-02T05:51:23;15.34;89.97
72380;SHT30;60354;47.798;12.472;2023-07-02T05:53:50;15.50;89.87
72380;SHT30;60354;47.798;12.472;2023-07-02T05:56:16;15.35;90.48
72380;SHT30;60354;47.798;12.472;2023-07-02T05:58:42;15.50;90.92
72380;SHT30;60354;47.798;12.472;2023-07-02T06:01:08;15.47;90.07
72380;SHT30;60354;47.798;12.472;2023-07-02T06:03:33;15.52;90.86
72380;SHT30;60354;47.798;12.472;2023-07-02T06:05:59;15.57;89.00
72380;SHT30;60354;47.798;12.472;2023-07-02T06:08:24;15.60;89.81
72380;SHT30;60354;47.798;12.472;2023-07-02T06:10:50;15.67;87.83
72380;SHT30;60354;47.798;12.472;2023-07-02T06:13:16;15.73;88.31
72380;SHT30;60354;47.798;12.472;2023-07-02T06:15:42;15.79;89.44
72380;SHT30;60354;47.798;12.472;2023-07-02T06:18:08;15.85;89.77
72380;SHT30;60354;47.798;12.472;2023-07-02T06:20:33;15.90;89.12
72380;SHT30;60354;47.798;12.472;2023-07-02T06:22:58;15.93;87.56
72380;SHT30;60354;47.798;12.472;2023-07-02T06:25:24;15.73;87.63
72380;SHT30;60354;47.798;12.472;2023-07-02T06:27:50;15.71;87.93
72380;SHT30;60354;47.798;12.472;2023-07-02T06:30:15;15.74;88.20
72380;SHT30;60354;47.798;12.472;2023-07-02T06:32:41;15.83;88.07
72380;SHT30;60354;47.798;12.472;2023-07-02T06:35:06;15.85;87.19
72380;SHT30;60354;47.798;12.472;2023-07-02T06:37:32;15.74;87.85
72380;SHT30;60354;47.798;12.472;2023-07-02T06:39:58;15.85;87.79
72380;SHT30;60354;47.798;12.472;2023-07-02T06:42:25;15.93;88.18
72380;SHT30;60354;47.798;12.472;2023-07-02T06:44:51;15.94;87.73
72380;SHT30;60354;47.798;12.472;2023-07-02T06:47:17;16.48;84.21
72380;SHT30;60354;47.798;12.472;2023-07-02T06:49:42;16.34;86.91
72380;SHT30;60354;47.798;12.472;2023-07-02T06:52:08;16.40;87.70
72380;SHT30;60354;47.798;12.472;2023-07-02T06:54:33;16.48;87.66
72380;SHT30;60354;47.798;12.472;2023-07-02T06:57:00;16.47;88.96
72380;SHT30;60354;47.798;12.472;2023-07-02T06:59:25;16.24;89.71
72380;SHT30;60354;47.798;12.472;2023-07-02T07:01:51;15.97;88.82
72380;SHT30;60354;47.798;12.472;2023-07-02T07:04:17;16.01;88.29
72380;SHT30;60354;47.798;12.472;2023-07-02T07:06:43;16.03;89.14
72380;SHT30;60354;47.798;12.472;2023-07-02T07:09:08;16.06;88.62
72380;SHT30;60354;47.798;12.472;2023-07-02T07:11:34;16.14;88.16
72380;SHT30;60354;47.798;12.472;2023-07-02T07:14:00;16.22;88.58
72380;SHT30;60354;47.798;12.472;2023-07-02T07:16:25;16.22;89.10
72380;SHT30;60354;47.798;12.472;2023-07-02T07:18:51;16.22;88.69
72380;SHT30;60354;47.798;12.472;2023-07-02T07:21:16;16.28;88.03
72380;SHT30;60354;47.798;12.472;2023-07-02T07:23:42;16.18;88.86
72380;SHT30;60354;47.798;12.472;2023-07-02T07:26:07;16.21;88.03
72380;SHT30;60354;47.798;12.472;2023-07-02T07:28:33;16.31;88.39
72380;SHT30;60354;47.798;12.472;2023-07-02T07:30:58;16.35;87.54
72380;SHT30;60354;47.798;12.472;2023-07-02T07:33:24;16.27;87.66
72380;SHT30;60354;47.798;12.472;2023-07-02T07:35:49;16.21;88.85
72380;SHT30;60354;47.798;12.472;2023-07-02T07:38:15;16.25;88.83
72380;SHT30;60354;47.798;12.472;2023-07-02T07:40:41;16.40;89.14
72380;SHT30;60354;47.798;12.472;2023-07-02T07:43:07;16.52;89.44
72380;SHT30;60354;47.798;12.472;2023-07-02T07:45:33;16.62;88.81
72380;SHT30;60354;47.798;12.472;2023-07-02T07:47:58;16.65;87.14
72380;SHT30;60354;47.798;12.472;2023-07-02T07:50:24;16.72;89.10
72380;SHT30;60354;47.798;12.472;2023-07-02T07:52:49;16.90;88.46
72380;SHT30;60354;47.798;12.472;2023-07-02T07:55:16;16.93;86.90
72380;SHT30;60354;47.798;12.472;2023-07-02T07:57:42;17.05;88.15
72380;SHT30;60354;47.798;12.472;2023-07-02T08:00:07;17.22;86.57
72380;SHT30;60354;47.798;12.472;2023-07-02T08:02:47;17.26;87.87
72380;SHT30;60354;47.798;12.472;2023-07-02T08:05:13;17.20;88.58
72380;SHT30;60354;47.798;12.472;2023-07-02T08:07:39;17.23;87.95
72380;SHT30;60354;47.798;12.472;2023-07-02T08:10:05;17.30;87.85
72380;SHT30;60354;47.798;12.472;2023-07-02T08:12:33;17.38;87.47
72380;SHT30;60354;47.798;12.472;2023-07-02T08:14:58;17.27;87.80
72380;SHT30;60354;47.798;12.472;2023-07-02T08:17:24;17.46;87.88
72380;SHT30;60354;47.798;12.472;2023-07-02T08:19:51;17.57;87.45
72380;SHT30;60354;47.798;12.472;2023-07-02T08:22:16;17.64;86.77
72380;SHT30;60354;47.798;12.472;2023-07-02T08:24:42;17.74;87.47
72380;SHT30;60354;47.798;12.472;2023-07-02T08:27:07;17.75;88.10
72380;SHT30;60354;47.798;12.472;2023-07-02T08:29:33;17.82;88.16
72380;SHT30;60354;47.798;12.472;2023-07-02T08:31:58;17.74;87.66
72380;SHT30;60354;47.798;12.472;2023-07-02T08:34:24;17.94;87.74
72380;SHT30;60354;47.798;12.472;2023-07-02T08:36:49;18.02;87.51
72380;SHT30;60354;47.798;12.472;2023-07-02T08:39:17;18.15;86.86
72380;SHT30;60354;47.798;12.472;2023-07-02T08:41:46;18.10;86.56
72380;SHT30;60354;47.798;12.472;2023-07-02T08:44:12;18.15;86.20
72380;SHT30;60354;47.798;12.472;2023-07-02T08:46:39;18.21;86.96
72380;SHT30;60354;47.798;12.472;2023-07-02T08:49:06;18.29;88.15
72380;SHT30;60354;47.798;12.472;2023-07-02T08:51:31;18.45;88.42
72380;SHT30;60354;47.798;12.472;2023-07-02T08:53:57;18.52;84.49
72380;SHT30;60354;47.798;12.472;2023-07-02T08:56:22;18.60;84.52
72380;SHT30;60354;47.798;12.472;2023-07-02T08:58:48;18.60;85.74
72380;SHT30;60354;47.798;12.472;2023-07-02T09:01:14;18.61;84.15
72380;SHT30;60354;47.798;12.472;2023-07-02T09:03:40;18.73;84.90
72380;SHT30;60354;47.798;12.472;2023-07-02T09:06:11;18.71;85.72
72380;SHT30;60354;47.798;12.472;2023-07-02T09:08:37;18.74;86.22
72380;SHT30;60354;47.798;12.472;2023-07-02T09:11:09;18.66;84.33
72380;SHT30;60354;47.798;12.472;2023-07-02T09:13:44;18.74;85.29
72380;SHT30;60354;47.798;12.472;2023-07-02T09:16:27;18.63;84.33
72380;SHT30;60354;47.798;12.472;2023-07-02T09:18:56;18.46;82.31
72380;SHT30;60354;47.798;12.472;2023-07-02T09:21:22;17.99;85.21
72380;SHT30;60354;47.798;12.472;2023-07-02T09:23:48;17.50;86.68
72380;SHT30;60354;47.798;12.472;2023-07-02T09:26:23;16.73;88.39
72380;SHT30;60354;47.798;12.472;2023-07-02T09:28:49;15.89;90.16
72380;SHT30;60354;47.798;12.472;2023-07-02T09:31:14;15.82;91.67
72380;SHT30;60354;47.798;12.472;2023-07-02T09:33:40;15.83;91.60
72380;SHT30;60354;47.798;12.472;2023-07-02T09:36:05;15.97;91.82
72380;SHT30;60354;47.798;12.472;2023-07-02T09:38:31;16.08;90.63
72380;SHT30;60354;47.798;12.472;2023-07-02T09:40:56;16.07;90.94
72380;SHT30;60354;47.798;12.472;2023-07-02T09:43:24;16.20;91.73
72380;SHT30;60354;47.798;12.472;2023-07-02T09:45:54;16.35;91.83
72380;SHT30;60354;47.798;12.472;2023-07-02T09:48:24;16.32;91.10
72380;SHT30;60354;47.798;12.472;2023-07-02T09:50:51;16.45;90.76
72380;SHT30;60354;47.798;12.472;2023-07-02T09:53:16;16.37;89.32
72380;SHT30;60354;47.798;12.472;2023-07-02T09:55:43;16.56;90.96
72380;SHT30;60354;47.798;12.472;2023-07-02T09:58:08;16.59;90.37
72380;SHT30;60354;47.798;12.472;2023-07-02T10:00:35;16.54;89.24
72380;SHT30;60354;47.798;12.472;2023-07-02T10:03:00;16.65;88.87
72380;SHT30;60354;47.798;12.472;2023-07-02T10:05:33;16.89;89.47
72380;SHT30;60354;47.798;12.472;2023-07-02T10:08:15;16.76;88.68
72380;SHT30;60354;47.798;12.472;2023-07-02T10:10:43;16.72;88.88
72380;SHT30;60354;47.798;12.472;2023-07-02T10:13:08;16.76;87.45
72380;SHT30;60354;47.798;12.472;2023-07-02T10:15:34;16.79;89.53
72380;SHT30;60354;47.798;12.472;2023-07-02T10:18:08;16.68;88.23
72380;SHT30;60354;47.798;12.472;2023-07-02T10:20:39;16.79;88.31
72380;SHT30;60354;47.798;12.472;2023-07-02T10:23:06;16.79;87.75
72380;SHT30;60354;47.798;12.472;2023-07-02T10:25:34;16.99;88.06
72380;SHT30;60354;47.798;12.472;2023-07-02T10:28:20;17.10;88.88
72380;SHT30;60354;47.798;12.472;2023-07-02T10:30:47;17.26;87.53
72380;SHT30;60354;47.798;12.472;2023-07-02T10:33:17;17.41;85.22
72380;SHT30;60354;47.798;12.472;2023-07-02T10:35:44;17.71;85.34
72380;SHT30;60354;47.798;12.472;2023-07-02T10:38:19;17.46;86.81
72380;SHT30;60354;47.798;12.472;2023-07-02T10:40:45;17.24;84.79
72380;SHT30;60354;47.798;12.472;2023-07-02T10:43:11;17.44;85.92
72380;SHT30;60354;47.798;12.472;2023-07-02T10:45:37;17.61;85.09
72380;SHT30;60354;47.798;12.472;2023-07-02T10:48:03;17.64;85.46
72380;SHT30;60354;47.798;12.472;2023-07-02T10:50:30;17.85;84.07
72380;SHT30;60354;47.798;12.472;2023-07-02T10:52:56;17.73;84.84
72380;SHT30;60354;47.798;12.472;2023-07-02T10:55:23;17.71;86.19
72380;SHT30;60354;47.798;12.472;2023-07-02T10:57:49;17.57;86.75
72380;SHT30;60354;47.798;12.472;2023-07-02T11:00:18;17.68;85.59
72380;SHT30;60354;47.798;12.472;2023-07-02T11:02:44;17.63;86.92
72380;SHT30;60354;47.798;12.472;2023-07-02T11:05:09;17.67;87.17
72380;SHT30;60354;47.798;12.472;2023-07-02T11:07:40;17.75;86.29
72380;SHT30;60354;47.798;12.472;2023-07-02T11:10:07;17.98;86.95
72380;SHT30;60354;47.798;12.472;2023-07-02T11:12:34;18.32;88.39
72380;SHT30;60354;47.798;12.472;2023-07-02T11:17:34;18.98;83.17
72380;SHT30;60354;47.798;12.472;2023-07-02T11:20:00;19.35;83.44
72380;SHT30;60354;47.798;12.472;2023-07-02T11:22:35;19.61;83.00
72380;SHT30;60354;47.798;12.472;2023-07-02T11:25:15;19.24;82.46
72380;SHT30;60354;47.798;12.472;2023-07-02T11:27:41;19.28;80.10
72380;SHT30;60354;47.798;12.472;2023-07-02T11:30:07;19.18;81.54
72380;SHT30;60354;47.798;12.472;2023-07-02T11:32:51;19.38;83.46
72380;SHT30;60354;47.798;12.472;2023-07-02T11:35:17;19.42;83.08
72380;SHT30;60354;47.798;12.472;2023-07-02T11:37:43;19.25;82.36
72380;SHT30;60354;47.798;12.472;2023-07-02T11:40:10;18.91;82.04
72380;SHT30;60354;47.798;12.472;2023-07-02T11:42:36;19.18;82.88
72380;SHT30;60354;47.798;12.472;2023-07-02T11:45:01;19.12;81.95
72380;SHT30;60354;47.798;12.472;2023-07-02T11:47:27;19.45;84.53
72380;SHT30;60354;47.798;12.472;2023-07-02T11:49:53;19.34;79.03
72380;SHT30;60354;47.798;12.472;2023-07-02T11:52:20;19.77;83.01
72380;SHT30;60354;47.798;12.472;2023-07-02T11:54:46;19.85;78.62
72380;SHT30;60354;47.798;12.472;2023-07-02T11:57:12;19.76;78.06
72380;SHT30;60354;47.798;12.472;2023-07-02T11:59:38;19.59;78.57
72380;SHT30;60354;47.798;12.472;2023-07-02T12:02:03;20.06;79.27
72380;SHT30;60354;47.798;12.472;2023-07-02T12:04:29;20.30;77.51
72380;SHT30;60354;47.798;12.472;2023-07-02T12:06:54;20.37;75.89
72380;SHT30;60354;47.798;12.472;2023-07-02T12:09:20;20.69;74.54
72380;SHT30;60354;47.798;12.472;2023-07-02T12:11:45;20.61;73.94
72380;SHT30;60354;47.798;12.472;2023-07-02T12:14:11;20.84;74.37
72380;SHT30;60354;47.798;12.472;2023-07-02T12:16:37;21.10;73.63
72380;SHT30;60354;47.798;12.472;2023-07-02T12:19:02;21.10;73.46
72380;SHT30;60354;47.798;12.472;2023-07-02T12:21:28;21.19;74.03
72380;SHT30;60354;47.798;12.472;2023-07-02T12:23:53;20.94;72.52
72380;SHT30;60354;47.798;12.472;2023-07-02T12:26:19;20.99;72.69
72380;SHT30;60354;47.798;12.472;2023-07-02T12:28:44;20.94;70.11
72380;SHT30;60354;47.798;12.472;2023-07-02T12:31:10;21.02;72.25
72380;SHT30;60354;47.798;12.472;2023-07-02T12:33:38;20.98;71.33
72380;SHT30;60354;47.798;12.472;2023-07-02T12:36:03;21.37;70.90
72380;SHT30;60354;47.798;12.472;2023-07-02T12:38:29;21.57;69.19
72380;SHT30;60354;47.798;12.472;2023-07-02T12:40:54;21.71;69.15
72380;SHT30;60354;47.798;12.472;2023-07-02T12:43:20;21.70;71.26
72380;SHT30;60354;47.798;12.472;2023-07-02T12:45:45;21.74;67.92
72380;SHT30;60354;47.798;12.472;2023-07-02T12:48:12;21.81;67.63
72380;SHT30;60354;47.798;12.472;2023-07-02T12:50:38;21.71;65.53
72380;SHT30;60354;47.798;12.472;2023-07-02T12:53:03;21.98;65.35
72380;SHT30;60354;47.798;12.472;2023-07-02T12:55:29;22.05;65.00
72380;SHT30;60354;47.798;12.472;2023-07-02T12:57:55;22.19;67.21
72380;SHT30;60354;47.798;12.472;2023-07-02T13:00:20;22.31;63.89
72380;SHT30;60354;47.798;12.472;2023-07-02T13:02:46;22.21;63.70
72380;SHT30;60354;47.798;12.472;2023-07-02T13:05:12;22.12;63.20
72380;SHT30;60354;47.798;12.472;2023-07-02T13:07:38;22.05;64.39
72380;SHT30;60354;47.798;12.472;2023-07-02T13:10:04;22.15;64.90
72380;SHT30;60354;47.798;12.472;2023-07-02T13:12:30;22.44;64.54
72380;SHT30;60354;47.798;12.472;2023-07-02T13:14:55;22.52;63.47
72380;SHT30;60354;47.798;12.472;2023-07-02T13:17:21;22.63;66.29
72380;SHT30;60354;47.798;12.472;2023-07-02T13:19:46;22.87;64.47
72380;SHT30;60354;47.798;12.472;2023-07-02T13:22:12;22.73;62.03
72380;SHT30;60354;47.798;12.472;2023-07-02T13:24:37;22.52;62.98
72380;SHT30;60354;47.798;12.472;2023-07-02T13:27:09;22.48;62.85
72380;SHT30;60354;47.798;12.472;2023-07-02T13:29:36;22.45;62.47
72380;SHT30;60354;47.798;12.472;2023-07-02T13:32:01;22.49;62.91
72380;SHT30;60354;47.798;12.472;2023-07-02T13:34:27;22.39;63.41
72380;SHT30;60354;47.798;12.472;2023-07-02T13:36:53;22.45;63.28
72380;SHT30;60354;47.798;12.472;2023-07-02T13:39:18;22.63;62.97
72380;SHT30;60354;47.798;12.472;2023-07-02T13:41:43;22.79;63.58
72380;SHT30;60354;47.798;12.472;2023-07-02T13:44:09;23.06;62.18
72380;SHT30;60354;47.798;12.472;2023-07-02T13:46:34;23.44;61.54
72380;SHT30;60354;47.798;12.472;2023-07-02T13:49:00;23.51;63.42
72380;SHT30;60354;47.798;12.472;2023-07-02T13:51:26;23.33;60.96
72380;SHT30;60354;47.798;12.472;2023-07-02T13:53:51;23.21;62.34
72380;SHT30;60354;47.798;12.472;2023-07-02T13:56:17;23.08;61.28
72380;SHT30;60354;47.798;12.472;2023-07-02T13:59:07;23.00;62.65
72380;SHT30;60354;47.798;12.472;2023-07-02T14:01:32;22.93;61.60
72380;SHT30;60354;47.798;12.472;2023-07-02T14:03:58;22.97;64.59
72380;SHT30;60354;47.798;12.472;2023-07-02T14:06:23;22.80;61.47
72380;SHT30;60354;47.798;12.472;2023-07-02T14:08:49;22.87;60.65
72380;SHT30;60354;47.798;12.472;2023-07-02T14:11:15;22.85;61.39
72380;SHT30;60354;47.798;12.472;2023-07-02T14:13:40;22.96;62.13
72380;SHT30;60354;47.798;12.472;2023-07-02T14:16:06;23.11;62.02
72380;SHT30;60354;47.798;12.472;2023-07-02T14:18:31;23.03;61.49
72380;SHT30;60354;47.798;12.472;2023-07-02T14:20:57;22.99;61.87
72380;SHT30;60354;47.798;12.472;2023-07-02T14:23:22;23.02;60.67
72380;SHT30;60354;47.798;12.472;2023-07-02T14:25:47;23.02;61.48
72380;SHT30;60354;47.798;12.472;2023-07-02T14:28:13;23.26;60.98
72380;SHT30;60354;47.798;12.472;2023-07-02T14:30:38;23.27;60.92
72380;SHT30;60354;47.798;12.472;2023-07-02T14:33:04;23.23;60.19
72380;SHT30;60354;47.798;12.472;2023-07-02T14:35:29;23.16;59.75
72380;SHT30;60354;47.798;12.472;2023-07-02T14:37:57;23.43;60.91
72380;SHT30;60354;47.798;12.472;2023-07-02T14:40:23;23.44;61.71
72380;SHT30;60354;47.798;12.472;2023-07-02T14:42:48;23.18;59.55
72380;SHT30;60354;47.798;12.472;2023-07-02T14:45:14;23.13;60.68
72380;SHT30;60354;47.798;12.472;2023-07-02T14:47:39;23.20;61.42
72380;SHT30;60354;47.798;12.472;2023-07-02T14:50:05;23.37;62.50
72380;SHT30;60354;47.798;12.472;2023-07-02T14:52:31;23.47;61.87
72380;SHT30;60354;47.798;12.472;2023-07-02T14:54:56;23.62;61.38
72380;SHT30;60354;47.798;12.472;2023-07-02T14:57:25;23.47;61.15
72380;SHT30;60354;47.798;12.472;2023-07-02T14:59:50;23.55;61.48
72380;SHT30;60354;47.798;12.472;2023-07-02T15:02:17;23.64;59.95
72380;SHT30;60354;47.798;12.472;2023-07-02T15:04:43;23.51;59.50
72380;SHT30;60354;47.798;12.472;2023-07-02T15:07:09;23.61;60.12
72380;SHT30;60354;47.798;12.472;2023-07-02T15:09:35;23.62;59.35
72380;SHT30;60354;47.798;12.472;2023-07-02T15:12:01;23.72;60.24